Time;durP1;ratioP1;P1;durP2;ratioP2;P2;SDS_P1;SDS_P2;PMS_P1;PMS_P2;Temp;Humidity;BMP_temperature;BMP_pressure;BME280_temperature;BME280_humidity;BME280_pressure;Samples;Min_cycle;Max_cycle;Signal;HPM_P1;HPM_P2
2022/05/06 00:01:41;;;;;;;3.03;2.70;;;17.20;64.30;;;;;;5277853;28;20191;-67
2022/05/06 00:04:33;;;;;;;3.40;2.63;;;17.30;64.30;;;;;;5287404;28;20191;-67
2022/05/06 00:07:25;;;;;;;4.07;3.03;;;17.30;64.30;;;;;;5288013;28;20197;-67
2022/05/06 00:10:17;;;;;;;3.73;3.20;;;17.20;64.20;;;;;;5287012;28;20571;-67
2022/05/06 00:13:09;;;;;;;2.77;2.50;;;17.20;64.20;;;;;;5286810;28;20199;-67
2022/05/06 00:16:03;;;;;;;3.00;2.70;;;17.20;64.20;;;;;;5287901;28;20205;-66
2022/05/06 00:18:56;;;;;;;4.70;3.00;;;17.20;64.30;;;;;;5287750;28;20301;-66
2022/05/06 00:21:48;;;;;;;2.73;2.43;;;17.20;64.30;;;;;;5279031;28;20335;-66
2022/05/06 00:24:40;;;;;;;4.00;3.00;;;17.20;64.30;;;;;;5279282;28;20196;-67
2022/05/06 00:27:32;;;;;;;3.83;2.83;;;17.20;64.30;;;;;;5287433;28;20229;-66
2022/05/06 00:30:25;;;;;;;3.07;2.47;;;17.30;64.30;;;;;;5287657;28;20619;-66
2022/05/06 00:33:18;;;;;;;3.80;2.67;;;17.20;64.20;;;;;;5286973;28;20195;-66
2022/05/06 00:36:10;;;;;;;2.63;2.43;;;17.20;64.20;;;;;;5287892;28;20278;-67
2022/05/06 00:39:03;;;;;;;3.37;2.63;;;17.20;64.20;;;;;;5286641;28;20207;-67
2022/05/06 00:41:55;;;;;;;3.20;2.87;;;17.20;64.20;;;;;;5286388;28;20277;-67
2022/05/06 00:44:47;;;;;;;4.37;3.10;;;17.30;64.30;;;;;;5286862;28;20838;-65
2022/05/06 00:47:39;;;;;;;3.47;2.80;;;17.20;64.20;;;;;;5277979;28;20272;-66
2022/05/06 00:50:33;;;;;;;4.10;2.80;;;17.20;64.20;;;;;;5269127;28;20188;-67
2022/05/06 00:53:26;;;;;;;4.07;2.67;;;17.20;64.20;;;;;;5286195;28;20195;-67
2022/05/06 00:56:18;;;;;;;3.63;2.77;;;17.20;64.20;;;;;;5286919;28;20252;-66
2022/05/06 00:59:13;;;;;;;4.93;2.87;;;17.20;64.20;;;;;;5286660;28;20306;-67
2022/05/06 01:02:06;;;;;;;5.23;2.77;;;17.20;64.20;;;;;;5286828;28;20195;-66
2022/05/06 01:04:58;;;;;;;3.77;2.53;;;17.20;64.20;;;;;;5287080;28;20592;-67
2022/05/06 01:07:52;;;;;;;3.30;2.83;;;17.20;64.80;;;;;;5286790;28;20195;-67
2022/05/06 01:10:44;;;;;;;3.40;2.63;;;17.20;64.20;;;;;;5286475;28;20191;-67
2022/05/06 01:13:40;;;;;;;3.97;2.63;;;17.20;64.20;;;;;;5285878;28;20569;-67
2022/05/06 01:16:36;;;;;;;4.10;3.10;;;17.20;64.10;;;;;;5286150;28;20195;-68
2022/05/06 01:19:28;;;;;;;3.30;2.47;;;17.20;64.10;;;;;;5285816;28;20215;-66
2022/05/06 01:22:21;;;;;;;2.80;2.60;;;17.20;64.20;;;;;;5278444;28;20605;-66
2022/05/06 01:25:14;;;;;;;3.07;2.77;;;17.20;64.10;;;;;;5270637;28;20672;-66
2022/05/06 01:28:07;;;;;;;3.20;2.60;;;17.20;64.10;;;;;;5281084;28;20213;-67
2022/05/06 01:31:01;;;;;;;4.13;2.77;;;17.20;64.10;;;;;;5265288;28;20188;-67
2022/05/06 01:33:55;;;;;;;2.97;2.60;;;17.20;64.20;;;;;;5267369;28;20195;-66
2022/05/06 01:36:51;;;;;;;2.97;2.67;;;17.20;64.10;;;;;;5264476;28;20675;-66
2022/05/06 01:39:51;;;;;;;3.53;2.57;;;17.20;64.20;;;;;;5283361;28;20219;-67
2022/05/06 01:42:46;;;;;;;3.07;2.17;;;17.20;64.10;;;;;;5284918;28;20618;-67
2022/05/06 01:45:39;;;;;;;2.97;2.63;;;17.20;64.10;;;;;;5285682;28;20392;-67
2022/05/06 01:48:32;;;;;;;2.60;2.30;;;17.20;64.20;;;;;;5281658;28;20207;-66
2022/05/06 01:51:24;;;;;;;3.20;2.70;;;17.20;64.10;;;;;;5274916;28;20195;-67
2022/05/06 01:54:16;;;;;;;2.77;2.43;;;17.20;64.10;;;;;;5285363;28;20752;-67
2022/05/06 01:57:10;;;;;;;3.60;2.70;;;17.20;64.10;;;;;;5286257;28;20645;-66
2022/05/06 02:00:02;;;;;;;3.60;2.50;;;17.20;64.10;;;;;;5265108;28;20215;-68
2022/05/06 02:02:56;;;;;;;3.27;2.43;;;17.20;64.10;;;;;;5268206;28;20194;-67
2022/05/06 02:05:47;;;;;;;2.90;2.63;;;17.20;64.10;;;;;;5280432;28;20249;-66
2022/05/06 02:08:39;;;;;;;2.73;2.33;;;17.20;64.20;;;;;;5264914;28;20211;-66
2022/05/06 02:11:32;;;;;;;3.40;2.57;;;17.20;64.10;;;;;;5264760;28;20672;-67
2022/05/06 02:14:25;;;;;;;3.00;2.60;;;17.20;64.10;;;;;;5264792;28;20694;-66
2022/05/06 02:17:17;;;;;;;2.40;2.20;;;17.20;64.10;;;;;;5265222;28;20268;-66
2022/05/06 02:20:11;;;;;;;2.63;2.20;;;17.20;64.10;;;;;;5281411;28;20215;-67
2022/05/06 02:23:03;;;;;;;3.20;2.53;;;17.20;64.10;;;;;;5280433;28;20195;-66
2022/05/06 02:25:56;;;;;;;2.90;2.40;;;17.20;64.10;;;;;;5285263;28;20565;-67
2022/05/06 02:28:48;;;;;;;2.57;2.37;;;17.20;64.10;;;;;;5284321;28;20215;-67
2022/05/06 02:34:51;;;;;;;2.70;2.37;;;17.20;64.10;;;;;;5285984;28;20274;-66
2022/05/06 02:37:43;;;;;;;2.90;2.60;;;17.20;64.10;;;;;;5285339;28;20674;-66
2022/05/06 02:40:35;;;;;;;3.77;2.40;;;17.20;64.10;;;;;;5285842;28;20278;-67
2022/05/06 02:43:27;;;;;;;2.90;2.43;;;17.20;64.20;;;;;;5284714;28;20569;-66
2022/05/06 02:46:20;;;;;;;2.97;2.50;;;17.20;64.10;;;;;;5284475;28;20195;-66
2022/05/06 02:49:13;;;;;;;3.67;2.53;;;17.20;64.10;;;;;;5285063;28;20218;-67
2022/05/06 02:52:09;;;;;;;2.47;1.97;;;17.20;64.20;;;;;;5276945;28;20320;-66
2022/05/06 02:55:01;;;;;;;3.17;2.63;;;17.20;64.10;;;;;;5285253;28;20324;-66
2022/05/06 02:57:53;;;;;;;2.50;2.23;;;17.20;64.10;;;;;;5284716;28;20207;-66
2022/05/06 03:00:45;;;;;;;2.67;2.43;;;17.20;64.10;;;;;;5285039;28;20202;-66
2022/05/06 03:03:37;;;;;;;2.60;2.37;;;17.20;64.10;;;;;;5274328;28;20196;-66
2022/05/06 03:06:31;;;;;;;2.63;2.43;;;17.20;64.10;;;;;;5264550;28;20300;-66
2022/05/06 03:09:23;;;;;;;2.10;1.93;;;17.20;64.10;;;;;;5264204;28;20708;-66
2022/05/06 03:12:17;;;;;;;2.53;2.17;;;17.20;64.10;;;;;;5265791;28;20187;-67
2022/05/06 03:15:10;;;;;;;2.20;2.00;;;17.20;64.10;;;;;;5267967;28;20203;-66
2022/05/06 03:18:03;;;;;;;2.40;2.20;;;17.20;64.10;;;;;;5281204;28;20219;-66
2022/05/06 03:20:55;;;;;;;2.40;2.20;;;17.20;64.10;;;;;;5269171;28;20192;-67
2022/05/06 03:23:51;;;;;;;2.90;2.27;;;17.20;64.00;;;;;;5267697;28;20202;-67
2022/05/06 03:26:43;;;;;;;2.97;2.63;;;17.20;64.10;;;;;;5268277;28;20659;-67
2022/05/06 03:29:37;;;;;;;3.20;2.40;;;17.20;64.10;;;;;;5268408;28;20214;-66
2022/05/06 03:32:31;;;;;;;3.27;2.23;;;17.20;64.70;;;;;;5277021;28;20297;-66
2022/05/06 03:35:23;;;;;;;2.33;2.00;;;17.20;64.10;;;;;;5288621;28;20195;-67
2022/05/06 03:38:16;;;;;;;2.53;2.33;;;17.20;64.00;;;;;;5278120;28;20590;-67
2022/05/06 03:41:09;;;;;;;2.67;2.23;;;17.20;64.00;;;;;;5267877;28;20203;-68
2022/05/06 03:44:02;;;;;;;2.93;2.40;;;17.20;63.90;;;;;;5267509;28;20202;-67
2022/05/06 03:46:54;;;;;;;2.57;2.30;;;17.20;63.90;;;;;;5284976;28;20213;-67
2022/05/06 03:51:20;;;;;;;2.33;2.13;;;17.20;63.90;;;;;;5285955;28;20204;-66
2022/05/06 03:52:58;;;;;;;3.07;2.03;;;17.20;63.90;;;;;;5276945;28;20203;-66
2022/05/06 03:55:50;;;;;;;3.20;2.30;;;17.20;63.80;;;;;;5287914;28;20179;-66
2022/05/06 03:58:44;;;;;;;2.27;2.07;;;17.20;63.90;;;;;;5283921;28;20758;-66
2022/05/06 04:01:37;;;;;;;2.43;2.23;;;17.20;63.90;;;;;;5283802;28;20198;-67
2022/05/06 04:04:29;;;;;;;3.30;2.50;;;17.20;63.90;;;;;;5287874;28;20199;-67
2022/05/06 04:07:21;;;;;;;2.90;2.50;;;17.20;63.90;;;;;;5287770;28;20194;-67
2022/05/06 04:10:13;;;;;;;2.40;2.20;;;17.20;63.90;;;;;;5287752;28;20218;-67
2022/05/06 04:13:05;;;;;;;2.37;1.87;;;17.20;63.90;;;;;;5288123;28;20199;-67
2022/05/06 04:15:58;;;;;;;2.53;2.13;;;17.20;64.00;;;;;;5287294;28;20278;-67
2022/05/06 04:18:50;;;;;;;2.23;2.03;;;17.20;64.00;;;;;;5278515;28;20913;-67
2022/05/06 04:24:52;;;;;;;2.13;1.93;;;17.20;64.00;;;;;;5266863;28;20670;-66
2022/05/06 04:27:45;;;;;;;2.30;2.03;;;17.20;64.00;;;;;;5267569;28;20194;-66
2022/05/06 04:30:37;;;;;;;2.33;2.10;;;17.20;64.00;;;;;;5267025;28;20196;-66
2022/05/06 04:33:30;;;;;;;2.10;1.90;;;17.20;63.90;;;;;;5272288;28;20208;-67
2022/05/06 04:36:22;;;;;;;2.60;2.30;;;17.20;63.90;;;;;;5287122;28;20307;-67
2022/05/06 04:39:16;;;;;;;3.37;1.80;;;17.30;64.00;;;;;;5287475;28;20211;-66
2022/05/06 04:42:09;;;;;;;2.73;2.50;;;17.30;64.00;;;;;;5281366;28;20659;-67
2022/05/06 04:45:01;;;;;;;2.50;2.10;;;17.20;63.90;;;;;;5268136;28;20203;-66
2022/05/06 04:47:53;;;;;;;2.60;2.23;;;17.20;64.00;;;;;;5266720;28;20275;-67
2022/05/06 04:50:47;;;;;;;2.80;2.20;;;17.20;63.90;;;;;;5276244;28;20206;-67
2022/05/06 04:53:39;;;;;;;2.60;1.83;;;17.30;64.00;;;;;;5278573;28;20200;-67
2022/05/06 04:56:31;;;;;;;2.30;2.10;;;17.20;64.00;;;;;;5286655;28;20202;-68
2022/05/06 04:59:24;;;;;;;2.03;1.87;;;17.20;64.00;;;;;;5286604;28;20223;-67
2022/05/06 05:02:16;;;;;;;2.57;1.87;;;17.30;63.90;;;;;;5286318;28;20188;-67
2022/05/06 05:05:09;;;;;;;2.53;1.90;;;17.30;63.90;;;;;;5287247;28;20568;-67
2022/05/06 05:08:03;;;;;;;2.80;2.13;;;17.20;63.80;;;;;;5273400;28;20552;-66
2022/05/06 05:11:02;;;;;;;2.17;1.90;;;17.20;63.80;;;;;;5264577;28;20582;-66
2022/05/06 05:13:55;;;;;;;2.87;2.13;;;17.20;63.90;;;;;;5263120;28;20192;-68
2022/05/06 05:16:48;;;;;;;1.90;1.80;;;17.20;63.90;;;;;;5267071;28;20199;-67
2022/05/06 05:19:42;;;;;;;2.37;2.17;;;17.20;63.90;;;;;;5273425;28;20307;-67
2022/05/06 05:22:35;;;;;;;3.83;2.03;;;17.20;64.00;;;;;;5270085;28;20195;-67
2022/05/06 05:25:29;;;;;;;2.87;2.20;;;17.20;63.90;;;;;;5284364;28;20191;-67
2022/05/06 05:28:21;;;;;;;2.63;2.23;;;17.20;63.90;;;;;;5266148;28;20222;-66
2022/05/06 05:31:13;;;;;;;1.93;1.80;;;17.20;63.90;;;;;;5274813;28;20200;-67
2022/05/06 05:34:05;;;;;;;3.23;2.30;;;17.20;63.90;;;;;;5265852;28;20735;-66
2022/05/06 05:36:57;;;;;;;3.80;2.10;;;17.20;63.90;;;;;;5281717;28;20202;-66
2022/05/06 05:39:49;;;;;;;2.27;2.07;;;17.20;63.90;;;;;;5276318;28;20214;-66
2022/05/06 05:42:43;;;;;;;2.70;2.20;;;17.30;63.90;;;;;;5275871;28;20199;-67
2022/05/06 05:48:44;;;;;;;3.23;2.40;;;17.30;63.90;;;;;;5275390;28;20199;-65
2022/05/06 05:51:37;;;;;;;2.93;2.47;;;17.30;63.90;;;;;;5272341;28;20210;-66
2022/05/06 05:54:29;;;;;;;2.53;2.10;;;17.20;63.80;;;;;;5277214;28;20187;-68
2022/05/06 05:57:21;;;;;;;2.23;2.03;;;17.20;64.10;;;;;;5277083;28;20209;-68
2022/05/06 06:00:15;;;;;;;3.00;2.40;;;17.20;64.10;;;;;;5285367;28;20625;-67
2022/05/06 06:03:07;;;;;;;7.07;4.30;;;17.30;63.90;;;;;;5282503;28;20191;-67
2022/05/06 06:05:59;;;;;;;7.43;5.00;;;17.20;63.10;;;;;;5267120;28;20205;-67
2022/05/06 06:08:51;;;;;;;9.00;5.67;;;17.20;62.80;;;;;;5279633;28;20880;-67
2022/05/06 06:11:43;;;;;;;7.40;6.13;;;17.20;62.60;;;;;;5276070;28;20195;-67
2022/05/06 06:14:36;;;;;;;8.17;6.20;;;17.20;62.10;;;;;;5279415;28;20204;-67
2022/05/06 06:17:29;;;;;;;8.47;6.97;;;17.20;62.00;;;;;;5264970;28;20192;-67
2022/05/06 06:20:23;;;;;;;8.60;7.03;;;17.20;61.70;;;;;;5264695;28;20226;-68
2022/05/06 06:23:15;;;;;;;9.20;7.47;;;17.20;61.60;;;;;;5275092;28;20226;-67
2022/05/06 06:26:07;;;;;;;9.87;7.77;;;17.20;61.50;;;;;;5264142;28;20198;-68
2022/05/06 06:28:59;;;;;;;11.63;8.37;;;17.20;61.50;;;;;;5268049;28;20213;-67
2022/05/06 06:31:52;;;;;;;10.77;8.43;;;17.20;61.40;;;;;;5285533;28;20638;-68
2022/05/06 06:34:45;;;;;;;10.73;8.50;;;17.20;61.50;;;;;;5285843;28;20581;-69
2022/05/06 06:37:38;;;;;;;9.37;7.77;;;17.20;61.50;;;;;;5285390;28;20199;-67
2022/05/06 06:40:30;;;;;;;15.70;8.73;;;17.20;61.40;;;;;;5285387;28;20721;-69
2022/05/06 06:43:22;;;;;;;9.90;7.63;;;17.20;61.60;;;;;;5285066;28;20945;-67
2022/05/06 06:46:14;;;;;;;10.40;8.53;;;17.20;61.60;;;;;;5268228;28;20594;-67
2022/05/06 06:49:06;;;;;;;11.37;8.57;;;17.20;61.60;;;;;;5268510;28;20222;-67
2022/05/06 06:52:00;;;;;;;12.17;7.50;;;17.20;61.60;;;;;;5282461;28;20199;-67
2022/05/06 06:54:52;;;;;;;10.87;7.23;;;17.20;61.70;;;;;;5289225;28;20620;-68
2022/05/06 06:57:44;;;;;;;9.60;8.10;;;17.10;61.60;;;;;;5289620;28;20199;-67
2022/05/06 07:00:37;;;;;;;10.40;7.97;;;17.20;61.70;;;;;;5289157;28;20199;-68
2022/05/06 07:03:29;;;;;;;10.77;7.50;;;17.20;61.70;;;;;;5287824;28;20191;-67
2022/05/06 07:12:42;;;;;;;7.20;6.50;;;17.20;61.90;;;;;;5268057;28;20226;-68
2022/05/06 07:15:34;;;;;;;7.63;6.63;;;17.20;61.90;;;;;;5282882;28;20562;-67
2022/05/06 07:18:27;;;;;;;8.40;7.27;;;17.20;62.00;;;;;;5274812;28;20235;-67
2022/05/06 07:21:19;;;;;;;7.33;6.50;;;17.10;62.10;;;;;;5268205;28;20670;-67
2022/05/06 07:24:11;;;;;;;8.10;6.37;;;17.10;62.10;;;;;;5267293;28;20218;-69
2022/05/06 07:27:04;;;;;;;8.47;6.37;;;17.10;62.20;;;;;;5267582;28;20285;-69
2022/05/06 07:29:57;;;;;;;7.53;6.00;;;17.20;62.30;;;;;;5268113;28;20678;-66
2022/05/06 07:32:49;;;;;;;7.67;5.20;;;17.20;62.40;;;;;;5268335;28;20195;-66
2022/05/06 07:35:41;;;;;;;6.57;4.90;;;17.20;62.50;;;;;;5268138;28;20297;-67
2022/05/06 07:38:33;;;;;;;6.17;3.70;;;17.20;62.60;;;;;;5276391;28;20218;-67
2022/05/06 07:41:25;;;;;;;4.63;4.17;;;17.20;63.30;;;;;;5288546;28;20187;-67
2022/05/06 07:44:18;;;;;;;6.17;4.20;;;17.20;62.70;;;;;;5287848;28;20253;-67
2022/05/06 07:47:11;;;;;;;4.20;3.63;;;17.20;62.70;;;;;;5269658;28;20192;-67
2022/05/06 07:50:03;;;;;;;4.37;3.40;;;17.20;62.80;;;;;;5267566;28;20216;-67
2022/05/06 07:52:55;;;;;;;6.17;3.20;;;17.20;62.90;;;;;;5288106;28;20195;-67
2022/05/06 07:55:47;;;;;;;3.20;2.83;;;17.20;63.00;;;;;;5288167;28;20195;-66
2022/05/06 07:58:39;;;;;;;4.40;2.90;;;17.20;63.00;;;;;;5286968;28;20221;-67
2022/05/06 08:04:48;;;;;;;2.90;2.60;;;17.30;63.20;;;;;;5288262;28;20192;-66
2022/05/06 08:07:40;;;;;;;3.80;2.60;;;17.30;63.30;;;;;;5287857;28;20194;-67
2022/05/06 08:10:32;;;;;;;3.13;2.23;;;17.30;63.30;;;;;;5278933;28;20237;-68
2022/05/06 08:13:24;;;;;;;4.00;2.33;;;17.30;63.30;;;;;;5287453;28;20202;-68
2022/05/06 08:16:16;;;;;;;2.83;2.47;;;17.30;63.40;;;;;;5285667;28;20199;-67
2022/05/06 08:19:11;;;;;;;3.50;2.10;;;17.30;63.40;;;;;;5288480;28;20207;-66
2022/05/06 08:22:03;;;;;;;2.83;2.10;;;17.30;63.50;;;;;;5287332;28;20692;-67
2022/05/06 08:24:56;;;;;;;2.37;2.07;;;17.30;63.50;;;;;;5276008;28;20199;-68
2022/05/06 08:27:49;;;;;;;2.87;2.10;;;17.30;63.50;;;;;;5267934;28;20196;-68
2022/05/06 08:30:41;;;;;;;2.00;1.80;;;17.30;63.60;;;;;;5287608;28;20190;-69
2022/05/06 08:33:34;;;;;;;2.13;1.90;;;17.30;63.60;;;;;;5286570;28;20203;-70
2022/05/06 08:36:28;;;;;;;2.10;1.90;;;17.30;63.70;;;;;;5287556;28;20555;-68
2022/05/06 08:39:20;;;;;;;2.90;2.00;;;17.30;63.70;;;;;;5287615;28;20211;-69
2022/05/06 08:42:13;;;;;;;2.37;1.70;;;17.30;63.80;;;;;;5269678;28;20658;-71
2022/05/06 08:51:32;;;;;;;1.97;1.83;;;17.30;64.00;;;;;;5273648;28;20233;-70
2022/05/06 08:54:24;;;;;;;1.67;1.57;;;17.40;64.10;;;;;;5266559;28;20206;-68
2022/05/06 08:57:16;;;;;;;2.30;1.87;;;17.30;64.00;;;;;;5266380;28;20215;-69
2022/05/06 09:00:10;;;;;;;1.70;1.60;;;17.30;64.00;;;;;;5265822;28;20219;-67
2022/05/06 09:03:02;;;;;;;2.43;1.63;;;17.40;64.20;;;;;;5266713;28;20202;-67
2022/05/06 09:05:57;;;;;;;1.63;1.53;;;17.30;64.20;;;;;;5266148;28;20718;-66
2022/05/06 09:08:51;;;;;;;2.07;1.80;;;17.30;64.20;;;;;;5274015;28;20593;-68
2022/05/06 09:18:17;;;;;;;2.33;1.70;;;17.30;64.20;;;;;;5264969;28;20191;-67
2022/05/06 09:21:14;;;;;;;2.30;1.90;;;17.30;64.30;;;;;;5266180;28;20628;-67
2022/05/06 09:24:21;;;;;;;2.40;1.60;;;17.30;64.30;;;;;;5265406;28;20192;-71
2022/05/06 09:27:14;;;;;;;2.00;1.77;;;17.30;64.30;;;;;;5266750;28;20200;-68
2022/05/06 09:30:09;;;;;;;1.47;1.37;;;17.30;64.30;;;;;;5281351;28;20211;-70
2022/05/06 09:33:01;;;;;;;2.67;1.93;;;17.30;64.40;;;;;;5269251;28;20196;-67
2022/05/06 09:35:53;;;;;;;1.93;1.80;;;17.30;64.30;;;;;;5264821;28;20207;-67
2022/05/06 09:39:01;;;;;;;2.20;2.00;;;17.30;64.40;;;;;;5265369;28;20752;-66
2022/05/06 09:42:04;;;;;;;1.57;1.47;;;17.40;64.50;;;;;;5265432;28;20641;-68
2022/05/06 09:44:56;;;;;;;2.00;1.77;;;17.30;64.40;;;;;;5265540;28;20318;-68
2022/05/06 09:47:57;;;;;;;2.30;1.73;;;17.40;64.50;;;;;;5265509;28;20203;-68
2022/05/06 09:50:50;;;;;;;1.70;1.60;;;17.30;64.40;;;;;;5270672;28;20339;-68
2022/05/06 09:53:42;;;;;;;4.00;1.70;;;17.30;64.30;;;;;;5286832;28;20201;-68
2022/05/06 09:56:34;;;;;;;3.53;1.67;;;17.30;64.30;;;;;;5276934;28;20198;-70
2022/05/06 09:59:29;;;;;;;3.27;1.60;;;17.40;64.50;;;;;;5263671;28;20211;-68
2022/05/06 10:02:22;;;;;;;2.90;1.77;;;17.40;64.50;;;;;;5264746;28;20192;-68
2022/05/06 10:05:14;;;;;;;1.60;1.50;;;17.30;64.40;;;;;;5265310;28;20671;-69
2022/05/06 10:08:11;;;;;;;2.10;1.90;;;17.40;64.50;;;;;;5268805;28;20282;-68
2022/05/06 10:11:12;;;;;;;1.90;1.70;;;17.30;64.40;;;;;;5274115;28;20187;-69
2022/05/06 10:14:05;;;;;;;2.33;1.83;;;17.40;64.60;;;;;;5264771;28;20202;-68
2022/05/06 10:16:59;;;;;;;2.13;1.47;;;17.30;64.50;;;;;;5276688;28;20202;-70
2022/05/06 10:19:51;;;;;;;3.27;1.90;;;17.40;64.60;;;;;;5266897;28;20275;-68
2022/05/06 10:22:59;;;;;;;2.83;1.93;;;17.40;64.60;;;;;;5267611;28;20196;-68
2022/05/06 10:25:57;;;;;;;2.40;1.73;;;17.30;64.50;;;;;;5269369;28;20199;-68
2022/05/06 10:35:15;;;;;;;1.60;1.50;;;17.40;64.60;;;;;;5267968;28;20551;-68
2022/05/06 10:38:24;;;;;;;3.10;2.07;;;17.40;64.60;;;;;;5269484;28;20200;-69
2022/05/06 10:41:24;;;;;;;1.87;1.77;;;17.40;64.60;;;;;;5268714;28;20702;-68
2022/05/06 10:44:32;;;;;;;3.30;1.83;;;17.40;64.60;;;;;;5268032;28;20196;-68
2022/05/06 10:47:49;;;;;;;2.00;1.77;;;17.40;64.60;;;;;;5271532;28;20202;-69
2022/05/06 10:50:41;;;;;;;2.03;1.83;;;17.40;64.60;;;;;;5272156;28;20666;-72
2022/05/06 10:53:34;;;;;;;2.00;1.67;;;17.40;64.70;;;;;;5286407;28;20700;-68
2022/05/06 10:56:31;;;;;;;1.83;1.70;;;17.40;64.70;;;;;;5268284;28;20200;-68
2022/05/06 10:59:52;;;;;;;3.37;1.93;;;17.40;64.70;;;;;;5274403;28;20214;-68
2022/05/06 11:02:46;;;;;;;1.90;1.60;;;17.40;64.70;;;;;;5289030;28;20199;-69
2022/05/06 11:05:40;;;;;;;3.13;1.87;;;17.40;64.70;;;;;;5288847;28;20631;-69
2022/05/06 11:08:33;;;;;;;1.50;1.20;;;17.40;64.70;;;;;;5289211;28;20258;-68
2022/05/06 11:11:25;;;;;;;2.30;1.80;;;17.30;64.60;;;;;;5280531;28;20241;-68
2022/05/06 11:14:22;;;;;;;1.90;1.70;;;17.40;64.70;;;;;;5280062;28;20195;-69
2022/05/06 11:17:15;;;;;;;3.00;1.97;;;17.40;64.70;;;;;;5282408;28;20544;-68
2022/05/06 11:20:16;;;;;;;2.23;1.83;;;17.40;65.00;;;;;;5274805;28;20199;-67
2022/05/06 11:23:11;;;;;;;3.10;1.80;;;17.40;64.80;;;;;;5268075;28;20596;-68
2022/05/06 11:26:03;;;;;;;1.97;1.77;;;17.40;64.80;;;;;;5269298;28;20199;-68
2022/05/06 11:29:03;;;;;;;2.27;1.93;;;17.40;64.80;;;;;;5266441;28;20216;-69
2022/05/06 11:31:55;;;;;;;2.17;1.63;;;17.40;64.80;;;;;;5286584;28;20633;-69
2022/05/06 11:34:52;;;;;;;1.67;1.40;;;17.40;64.80;;;;;;5287072;28;20195;-69
2022/05/06 11:37:44;;;;;;;1.90;1.70;;;17.40;65.40;;;;;;5289620;28;20191;-69
2022/05/06 11:40:38;;;;;;;1.87;1.60;;;17.40;64.80;;;;;;5272753;28;20216;-66
2022/05/06 11:43:30;;;;;;;2.17;1.67;;;17.40;64.80;;;;;;5288171;28;20199;-67
2022/05/06 11:49:32;;;;;;;3.47;1.80;;;17.40;64.90;;;;;;5281436;28;20268;-66
2022/05/06 11:52:25;;;;;;;2.33;1.67;;;17.40;65.00;;;;;;5271059;28;20207;-67
2022/05/06 11:55:17;;;;;;;3.10;1.80;;;17.40;65.00;;;;;;5275876;28;20192;-68
2022/05/06 11:58:14;;;;;;;1.63;1.53;;;17.40;65.00;;;;;;5266946;28;20571;-69
2022/05/06 12:01:06;;;;;;;1.67;1.57;;;17.40;64.90;;;;;;5267099;28;20583;-69
2022/05/06 12:04:02;;;;;;;2.10;1.50;;;17.40;64.90;;;;;;5267372;28;20686;-69
2022/05/06 12:06:55;;;;;;;1.83;1.63;;;17.40;64.90;;;;;;5266997;28;20852;-70
2022/05/06 12:09:47;;;;;;;1.70;1.60;;;17.40;64.90;;;;;;5275780;28;20305;-70
2022/05/06 12:12:56;;;;;;;1.50;1.30;;;17.40;64.90;;;;;;5287577;28;20191;-70
2022/05/06 12:15:49;;;;;;;1.83;1.67;;;17.40;64.90;;;;;;5266996;28;20550;-67
2022/05/06 12:18:54;;;;;;;3.07;1.80;;;17.40;65.00;;;;;;5265394;28;20208;-67
2022/05/06 12:21:46;;;;;;;2.87;1.67;;;17.40;65.00;;;;;;5264898;28;20219;-67
2022/05/06 12:24:43;;;;;;;1.67;1.57;;;17.40;65.10;;;;;;5280685;28;20202;-71
2022/05/06 12:27:36;;;;;;;2.60;1.70;;;17.40;65.10;;;;;;5277446;28;20195;-68
2022/05/06 12:30:31;;;;;;;1.47;1.37;;;17.40;65.10;;;;;;5286556;28;20194;-67
2022/05/06 12:33:36;;;;;;;2.40;1.33;;;17.40;65.20;;;;;;5286694;28;20199;-69
2022/05/06 12:36:28;;;;;;;1.63;1.50;;;17.40;65.20;;;;;;5287571;28;20194;-69
2022/05/06 12:39:22;;;;;;;1.57;1.47;;;17.40;65.30;;;;;;5278070;28;20215;-68
2022/05/06 12:42:15;;;;;;;1.93;1.53;;;17.40;65.30;;;;;;5265145;28;20199;-68
2022/05/06 12:45:11;;;;;;;1.93;1.43;;;17.40;65.30;;;;;;5265848;28;20203;-66
2022/05/06 12:51:14;;;;;;;2.03;1.53;;;17.40;65.40;;;;;;5269018;28;20206;-66
2022/05/06 12:54:06;;;;;;;2.13;1.40;;;17.40;65.40;;;;;;5273100;28;20187;-67
2022/05/06 12:56:58;;;;;;;2.20;1.70;;;17.40;65.40;;;;;;5275872;28;20196;-66
2022/05/06 12:59:50;;;;;;;1.50;1.40;;;17.40;65.30;;;;;;5265646;28;20695;-66
2022/05/06 13:02:42;;;;;;;1.67;1.37;;;17.40;65.30;;;;;;5266011;28;20200;-66
2022/05/06 13:05:35;;;;;;;1.97;1.50;;;17.40;65.30;;;;;;5266915;28;20203;-67
2022/05/06 13:08:29;;;;;;;1.40;1.30;;;17.40;65.30;;;;;;5273766;28;20706;-67
2022/05/06 13:11:21;;;;;;;2.03;1.60;;;17.40;65.30;;;;;;5266892;28;20452;-67
2022/05/06 13:14:13;;;;;;;2.27;1.60;;;17.40;65.20;;;;;;5286731;28;20195;-67
2022/05/06 13:17:05;;;;;;;1.90;1.60;;;17.40;65.20;;;;;;5286142;28;20232;-68
2022/05/06 13:19:57;;;;;;;1.50;1.40;;;17.40;65.20;;;;;;5286633;28;20250;-68
2022/05/06 13:22:49;;;;;;;1.20;1.13;;;17.40;65.10;;;;;;5286152;28;20199;-67
2022/05/06 13:25:43;;;;;;;1.53;1.40;;;17.40;65.10;;;;;;5285967;28;20202;-68
2022/05/06 13:28:36;;;;;;;1.50;1.40;;;17.40;65.10;;;;;;5286342;28;20219;-68
2022/05/06 13:31:28;;;;;;;1.13;1.07;;;17.40;65.10;;;;;;5286454;28;20209;-67
2022/05/06 13:34:20;;;;;;;1.87;1.37;;;17.40;65.10;;;;;;5286052;28;20203;-66
2022/05/06 13:37:12;;;;;;;1.90;1.60;;;17.40;65.10;;;;;;5284471;28;20677;-67
2022/05/06 13:40:05;;;;;;;1.83;1.60;;;17.40;65.10;;;;;;5279463;28;20305;-66
2022/05/06 13:42:58;;;;;;;1.67;1.57;;;17.40;65.10;;;;;;5264051;28;20200;-68
2022/05/06 13:45:50;;;;;;;2.33;1.40;;;17.40;65.10;;;;;;5264452;28;20200;-67
2022/05/06 13:48:42;;;;;;;2.83;1.57;;;17.40;65.10;;;;;;5265282;28;20215;-66
2022/05/06 13:51:35;;;;;;;1.30;1.20;;;17.40;65.10;;;;;;5276976;28;20195;-67
2022/05/06 13:54:27;;;;;;;1.70;1.40;;;17.40;65.10;;;;;;5272417;28;20202;-65
2022/05/06 14:00:30;;;;;;;1.40;1.30;;;17.40;65.10;;;;;;5263856;28;20233;-67
2022/05/06 14:03:23;;;;;;;1.80;1.30;;;17.40;65.10;;;;;;5265422;28;20192;-68
2022/05/06 14:06:16;;;;;;;1.67;1.40;;;17.40;65.10;;;;;;5266363;28;20761;-67
2022/05/06 14:09:08;;;;;;;3.10;1.27;;;17.40;65.10;;;;;;5284436;28;20222;-67
2022/05/06 14:12:00;;;;;;;1.40;1.30;;;17.50;65.20;;;;;;5264570;28;20562;-67
2022/05/06 14:14:53;;;;;;;1.30;1.13;;;17.40;65.20;;;;;;5264267;28;20206;-67
2022/05/06 14:17:46;;;;;;;1.37;1.23;;;17.40;65.20;;;;;;5264128;28;20227;-68
2022/05/06 14:20:38;;;;;;;2.13;1.30;;;17.40;65.20;;;;;;5265145;28;20203;-67
2022/05/06 14:23:31;;;;;;;1.33;1.23;;;17.50;65.50;;;;;;5283462;28;20194;-67
2022/05/06 14:26:23;;;;;;;1.30;1.10;;;17.40;65.20;;;;;;5285308;28;20657;-66
2022/05/06 14:29:15;;;;;;;1.30;1.20;;;17.40;65.20;;;;;;5285370;28;20223;-67
2022/05/06 14:32:08;;;;;;;1.33;1.17;;;17.40;65.30;;;;;;5283786;28;20550;-67
2022/05/06 14:38:07;;;;;;;1.20;1.10;;;17.40;65.30;;;;;;5265378;28;20183;-68
2022/05/06 14:40:59;;;;;;;1.53;1.30;;;17.40;65.30;;;;;;5264600;28;20211;-66
2022/05/06 14:43:51;;;;;;;1.40;1.30;;;17.40;65.30;;;;;;5276629;28;20203;-67
2022/05/06 14:46:43;;;;;;;1.30;1.20;;;17.40;65.30;;;;;;5284665;28;20688;-67
2022/05/06 14:49:35;;;;;;;1.77;1.13;;;17.40;65.30;;;;;;5263696;28;20230;-67
2022/05/06 14:52:29;;;;;;;1.40;1.30;;;17.40;65.30;;;;;;5282558;28;20188;-66
2022/05/06 14:55:22;;;;;;;1.30;1.20;;;17.40;65.30;;;;;;5267941;28;20203;-66
2022/05/06 14:58:14;;;;;;;1.30;1.20;;;17.40;65.30;;;;;;5272594;28;20579;-67
2022/05/06 15:01:08;;;;;;;2.40;1.27;;;17.50;65.30;;;;;;5265314;28;20215;-68
2022/05/06 15:04:00;;;;;;;1.40;1.30;;;17.40;65.30;;;;;;5277647;28;20199;-67
2022/05/06 15:06:53;;;;;;;1.33;1.20;;;17.40;65.30;;;;;;5285746;28;20277;-67
2022/05/06 15:09:46;;;;;;;2.97;1.20;;;17.40;65.30;;;;;;5288752;28;20222;-67
2022/05/06 15:12:38;;;;;;;1.20;1.10;;;17.40;65.30;;;;;;5266877;28;20680;-66
2022/05/06 15:15:30;;;;;;;1.27;1.17;;;17.40;65.40;;;;;;5267899;28;20655;-67
2022/05/06 15:21:32;;;;;;;1.73;0.90;;;17.40;65.40;;;;;;5268241;28;20559;-67
2022/05/06 15:24:27;;;;;;;1.17;1.07;;;17.40;65.40;;;;;;5268850;28;20337;-68
2022/05/06 15:27:21;;;;;;;1.37;1.10;;;17.40;65.40;;;;;;5266946;28;20552;-68
2022/05/06 15:30:13;;;;;;;1.33;1.00;;;17.40;65.40;;;;;;5266768;28;20790;-67
2022/05/06 15:33:06;;;;;;;1.13;1.03;;;17.40;65.40;;;;;;5275256;28;20198;-68
2022/05/06 15:36:00;;;;;;;1.20;1.07;;;17.40;65.30;;;;;;5287455;28;20195;-68
2022/05/06 15:38:52;;;;;;;1.63;0.97;;;17.40;65.30;;;;;;5271736;28;20310;-68
2022/05/06 15:41:44;;;;;;;1.50;1.13;;;17.40;65.30;;;;;;5267756;28;20679;-68
2022/05/06 15:44:37;;;;;;;2.17;1.03;;;17.40;65.40;;;;;;5267609;28;20700;-68
2022/05/06 15:47:29;;;;;;;1.53;1.00;;;17.40;65.40;;;;;;5272268;28;20188;-68
2022/05/06 15:50:22;;;;;;;2.30;1.23;;;17.40;65.40;;;;;;5266131;28;20219;-68
2022/05/06 15:53:14;;;;;;;1.43;1.17;;;17.50;65.50;;;;;;5286265;28;20187;-68
2022/05/06 15:56:07;;;;;;;2.53;1.47;;;17.50;65.50;;;;;;5274177;28;20207;-68